createdAt,value
2018-05-17T00:00:06.242Z,13.20
2018-05-17T00:02:34.684Z,13.27
2018-05-17T00:05:06.148Z,17.00
2018-05-17T00:07:34.619Z,13.03
2018-05-17T00:10:06.095Z,12.40
2018-05-17T00:12:34.405Z,12.10
2018-05-17T00:15:06.379Z,13.27
2018-05-17T00:17:34.681Z,12.83
2018-05-17T00:20:06.387Z,12.13
2018-05-17T00:22:35.098Z,12.87
2018-05-17T00:25:06.808Z,14.17
2018-05-17T00:27:35.097Z,12.90
2018-05-17T00:30:07.422Z,13.57
2018-05-17T00:32:35.718Z,14.60
2018-05-17T00:35:07.664Z,13.10
2018-05-17T00:37:36.237Z,12.03
2018-05-17T00:40:06.791Z,11.30
2018-05-17T00:42:35.094Z,11.40
2018-05-17T00:45:06.311Z,11.67
2018-05-17T00:47:34.883Z,11.57
2018-05-17T00:50:06.329Z,11.73
2018-05-17T00:52:34.627Z,10.43
2018-05-17T00:55:09.738Z,11.93
2018-05-17T00:57:38.041Z,11.53
2018-05-17T01:00:06.492Z,12.73
2018-05-17T01:02:34.807Z,12.03
2018-05-17T01:05:07.534Z,13.23
2018-05-17T01:07:36.138Z,13.33
2018-05-17T01:10:07.456Z,13.47
2018-05-17T01:12:35.972Z,14.43
2018-05-17T01:15:07.204Z,11.97
2018-05-17T01:17:35.503Z,11.40
2018-05-17T01:20:07.758Z,12.07
2018-05-17T01:22:36.055Z,11.03
2018-05-17T01:25:08.859Z,11.67
2018-05-17T01:27:37.175Z,9.63
2018-05-17T01:30:06.601Z,9.33
2018-05-17T01:32:34.897Z,9.40
2018-05-17T01:35:06.930Z,9.27
2018-05-17T01:37:47.091Z,10.13
2018-05-17T01:40:15.882Z,10.93
2018-05-17T01:42:44.168Z,9.80
2018-05-17T01:45:12.438Z,10.53
2018-05-17T01:47:40.741Z,8.77
2018-05-17T01:50:09.023Z,9.07
2018-05-17T01:52:37.419Z,9.30
2018-05-17T01:55:06.430Z,10.80
2018-05-17T01:57:34.945Z,11.77
2018-05-17T02:00:07.312Z,12.27
2018-05-17T02:02:35.703Z,12.73
2018-05-17T02:05:07.647Z,15.47
2018-05-17T02:07:35.942Z,18.27
2018-05-17T02:10:08.035Z,10.53
2018-05-17T02:12:36.310Z,9.87
2018-05-17T02:15:06.184Z,8.57
2018-05-17T02:17:34.467Z,8.40
2018-05-17T02:20:05.918Z,7.50
2018-05-17T02:22:34.458Z,8.07
2018-05-17T02:25:08.404Z,7.73
2018-05-17T02:27:36.683Z,8.63
2018-05-17T02:30:06.707Z,8.83
2018-05-17T02:32:35.347Z,7.83
2018-05-17T02:35:07.136Z,7.90
2018-05-17T02:37:35.419Z,8.60
2018-05-17T02:40:07.555Z,8.20
2018-05-17T02:42:35.827Z,9.57
2018-05-17T02:45:07.953Z,7.73
2018-05-17T02:47:36.392Z,8.47
2018-05-17T02:50:06.269Z,8.30
2018-05-17T02:52:34.543Z,9.10
2018-05-17T02:55:06.716Z,8.30
2018-05-17T02:57:35.235Z,8.03
2018-05-17T03:00:07.203Z,8.63
2018-05-17T03:02:35.471Z,8.90
2018-05-17T03:05:07.748Z,8.30
2018-05-17T03:07:36.022Z,7.60
2018-05-17T03:10:07.571Z,8.00
2018-05-17T03:12:35.847Z,8.10
2018-05-17T03:15:07.888Z,8.20
2018-05-17T03:17:36.167Z,8.33
2018-05-17T03:20:07.475Z,9.60
2018-05-17T03:22:35.747Z,8.23
2018-05-17T03:25:07.369Z,8.57
2018-05-17T03:27:35.714Z,10.20
2018-05-17T03:30:07.718Z,9.00
2018-05-17T03:32:35.999Z,10.03
2018-05-17T03:35:07.541Z,9.83
2018-05-17T03:37:35.807Z,9.80
2018-05-17T03:40:07.459Z,9.67
2018-05-17T03:42:35.739Z,10.77
2018-05-17T03:45:06.335Z,10.90
2018-05-17T03:47:34.956Z,12.50
2018-05-17T03:50:07.069Z,16.87
2018-05-17T03:52:35.697Z,11.50
2018-05-17T03:55:07.555Z,11.67
2018-05-17T03:57:35.841Z,11.97
2018-05-17T04:00:06.509Z,13.10
2018-05-17T04:02:46.478Z,13.87
2018-05-17T04:05:26.683Z,13.33
2018-05-17T04:07:54.971Z,14.97
2018-05-17T04:10:23.360Z,14.23
2018-05-17T04:12:52.211Z,17.10
2018-05-17T04:15:20.500Z,13.33
2018-05-17T04:17:48.784Z,14.47
2018-05-17T04:20:17.080Z,14.13
2018-05-17T04:22:45.427Z,14.93
2018-05-17T04:25:13.729Z,14.10
2018-05-17T04:27:42.007Z,13.63
2018-05-17T04:30:10.296Z,13.73
2018-05-17T04:32:38.581Z,14.70
2018-05-17T04:35:06.877Z,14.37
2018-05-17T04:37:35.164Z,13.30
2018-05-17T04:40:07.179Z,14.43
2018-05-17T04:42:35.930Z,15.10
2018-05-17T04:45:07.157Z,14.10
2018-05-17T04:47:35.442Z,13.73
2018-05-17T04:50:06.388Z,14.17
2018-05-17T04:52:35.365Z,14.70
2018-05-17T04:55:06.839Z,12.90
2018-05-17T04:57:35.115Z,11.87
2018-05-17T05:00:06.940Z,13.90
2018-05-17T05:02:35.328Z,16.23
2018-05-17T05:05:07.255Z,16.40
2018-05-17T05:07:35.548Z,18.10
2018-05-17T05:10:07.447Z,17.87
2018-05-17T05:12:35.746Z,17.83
2018-05-17T05:15:08.548Z,18.87
2018-05-17T05:17:36.846Z,18.43
2018-05-17T05:20:06.436Z,17.80
2018-05-17T05:22:34.877Z,16.00
2018-05-17T05:25:10.544Z,15.53
2018-05-17T05:27:39.011Z,14.57
2018-05-17T05:30:07.283Z,14.33
2018-05-17T05:32:35.584Z,15.57
2018-05-17T05:35:06.487Z,16.10
2018-05-17T05:37:34.867Z,16.37
2018-05-17T05:40:09.656Z,17.30
2018-05-17T05:42:37.988Z,17.27
2018-05-17T05:45:07.397Z,17.13
2018-05-17T05:47:35.863Z,16.63
2018-05-17T05:50:07.315Z,15.73
2018-05-17T05:52:35.649Z,14.90
2018-05-17T05:55:06.928Z,15.27
2018-05-17T05:57:35.346Z,17.57
2018-05-17T06:00:06.782Z,17.57
2018-05-17T06:02:35.079Z,15.00
2018-05-17T06:05:07.162Z,14.70
2018-05-17T06:07:35.587Z,15.97
2018-05-17T06:10:07.415Z,23.87
2018-05-17T06:12:35.709Z,15.67
2018-05-17T06:15:07.804Z,15.87
2018-05-17T06:17:36.117Z,16.90
2018-05-17T06:20:07.327Z,17.07
2018-05-17T06:22:35.803Z,19.53
2018-05-17T06:25:07.665Z,20.10
2018-05-17T06:27:36.208Z,24.07
2018-05-17T06:30:08.159Z,24.87
2018-05-17T06:32:36.460Z,22.63
2018-05-17T06:35:06.500Z,21.70
2018-05-17T06:37:34.896Z,26.00
2018-05-17T06:40:09.874Z,21.53
2018-05-17T06:42:38.667Z,22.70
2018-05-17T06:45:06.953Z,20.27
2018-05-17T06:47:35.246Z,21.33
2018-05-17T06:50:06.477Z,23.47
2018-05-17T06:52:34.767Z,24.47
2018-05-17T06:55:08.778Z,25.10
2018-05-17T06:57:37.348Z,31.03
2018-05-17T07:00:07.358Z,29.00
2018-05-17T07:02:35.849Z,27.83
2018-05-17T07:05:06.534Z,28.33
2018-05-17T07:07:35.491Z,34.37
2018-05-17T07:10:07.552Z,29.07
2018-05-17T07:12:36.267Z,28.23
2018-05-17T07:15:06.749Z,27.00
2018-05-17T07:17:35.129Z,28.10
2018-05-17T07:20:06.451Z,26.87
2018-05-17T07:22:34.744Z,29.43
2018-05-17T07:25:07.132Z,29.93
2018-05-17T07:27:35.625Z,27.67
2018-05-17T07:30:05.532Z,28.10
2018-05-17T07:32:33.987Z,26.37
2018-05-17T07:35:08.991Z,27.70
2018-05-17T07:37:37.292Z,28.30
2018-05-17T07:40:05.575Z,27.90
2018-05-17T07:42:33.974Z,31.53
2018-05-17T07:45:09.099Z,31.13
2018-05-17T07:47:37.455Z,30.57
2018-05-17T07:50:05.733Z,31.20
2018-05-17T07:52:34.013Z,30.97
2018-05-17T07:55:05.386Z,30.23
2018-05-17T07:57:33.665Z,29.17
2018-05-17T08:00:05.218Z,30.60
2018-05-17T08:02:33.514Z,32.10
2018-05-17T08:05:08.427Z,30.53
2018-05-17T08:07:36.704Z,29.87
2018-05-17T08:10:06.326Z,31.73
2018-05-17T08:12:34.606Z,32.07
2018-05-17T08:15:05.706Z,31.90
2018-05-17T08:17:33.980Z,32.77
2018-05-17T08:20:09.141Z,33.33
2018-05-17T08:22:37.416Z,34.57
2018-05-17T08:25:05.983Z,37.03
2018-05-17T08:27:35.112Z,34.73
2018-05-17T08:30:07.028Z,34.37
2018-05-17T08:32:35.309Z,35.00
2018-05-17T08:35:07.435Z,36.87
2018-05-17T08:37:35.728Z,37.33
2018-05-17T08:40:05.878Z,35.17
2018-05-17T08:42:34.282Z,35.10
2018-05-17T08:45:06.549Z,33.77
2018-05-17T08:47:34.898Z,32.50
2018-05-17T08:50:06.994Z,35.13
2018-05-17T08:52:35.261Z,33.43
2018-05-17T08:55:07.201Z,33.60
2018-05-17T08:57:35.499Z,30.67
2018-05-17T09:00:05.622Z,31.63
2018-05-17T09:02:33.903Z,30.07
2018-05-17T09:05:05.436Z,31.30
2018-05-17T09:07:33.709Z,27.50
2018-05-17T09:10:05.064Z,30.00
2018-05-17T09:12:33.339Z,30.43
2018-05-17T09:15:08.011Z,29.27
2018-05-17T09:17:36.434Z,29.30
2018-05-17T09:20:06.154Z,27.23
2018-05-17T09:22:34.539Z,25.37
2018-05-17T09:25:06.586Z,20.57
2018-05-17T09:27:34.857Z,19.20
2018-05-17T09:30:05.782Z,18.07
2018-05-17T09:32:34.676Z,19.33
2018-05-17T09:35:05.639Z,20.67
2018-05-17T09:37:33.915Z,22.47
2018-05-17T09:40:07.269Z,21.70
2018-05-17T09:42:35.547Z,23.17
2018-05-17T09:45:06.971Z,22.07
2018-05-17T09:47:35.351Z,20.83
2018-05-17T09:50:07.352Z,19.20
2018-05-17T09:52:35.630Z,19.10
2018-05-17T09:55:05.704Z,17.70
2018-05-17T09:57:33.927Z,17.90
2018-05-17T10:00:05.359Z,19.27
2018-05-17T10:02:33.882Z,13.10
2018-05-17T10:05:06.144Z,19.70
2018-05-17T10:07:34.431Z,14.77
2018-05-17T10:10:05.757Z,12.37
2018-05-17T10:12:34.276Z,11.17
2018-05-17T10:15:05.811Z,11.73
2018-05-17T10:17:34.111Z,11.37
2018-05-17T10:20:05.758Z,11.57
2018-05-17T10:22:34.214Z,12.40
2018-05-17T10:25:06.136Z,14.10
2018-05-17T10:27:34.558Z,12.00
2018-05-17T10:30:06.776Z,12.80
2018-05-17T10:32:35.594Z,13.63
2018-05-17T10:35:06.995Z,13.73
2018-05-17T10:37:35.353Z,12.20
2018-05-17T10:40:06.628Z,12.10
2018-05-17T10:42:34.905Z,12.13
2018-05-17T10:45:05.895Z,13.90
2018-05-17T10:47:34.486Z,17.83
2018-05-17T10:50:06.627Z,16.53
2018-05-17T10:52:34.899Z,16.63
2018-05-17T10:55:06.849Z,16.90
2018-05-17T10:57:35.138Z,17.23
2018-05-17T11:00:07.188Z,16.67
2018-05-17T11:02:35.648Z,14.50
2018-05-17T11:05:07.586Z,13.37
2018-05-17T11:07:35.858Z,12.03
2018-05-17T11:10:05.715Z,11.50
2018-05-17T11:12:34.033Z,12.20
2018-05-17T11:15:09.100Z,11.27
2018-05-17T11:17:37.379Z,11.57
2018-05-17T11:20:05.796Z,9.43
2018-05-17T11:22:34.082Z,8.70
2018-05-17T11:25:09.134Z,8.50
2018-05-17T11:27:37.619Z,8.30
2018-05-17T11:30:05.964Z,7.87
2018-05-17T11:32:34.258Z,8.27
2018-05-17T11:35:09.336Z,8.60
2018-05-17T11:37:37.892Z,9.63
2018-05-17T11:40:06.280Z,7.70
2018-05-17T11:42:34.751Z,8.53
2018-05-17T11:45:06.702Z,8.17
2018-05-17T11:47:35.191Z,7.97
2018-05-17T11:50:08.959Z,7.47
2018-05-17T11:52:37.266Z,7.43
2018-05-17T11:55:06.568Z,8.00
2018-05-17T11:57:34.848Z,7.97
2018-05-17T12:00:05.690Z,7.47
2018-05-17T12:02:34.055Z,7.30
2018-05-17T12:05:07.781Z,7.40
2018-05-17T12:07:36.119Z,7.67
2018-05-17T12:10:05.767Z,7.67
2018-05-17T12:12:34.055Z,7.70
2018-05-17T12:15:05.436Z,8.27
2018-05-17T12:17:33.735Z,8.13
2018-05-17T12:20:05.200Z,8.07
2018-05-17T12:22:33.491Z,7.40
2018-05-17T12:25:05.624Z,7.87
2018-05-17T12:27:33.915Z,8.50
2018-05-17T12:30:05.439Z,7.60
2018-05-17T12:32:33.772Z,7.87
2018-05-17T12:35:08.799Z,7.00
2018-05-17T12:37:37.090Z,7.03
2018-05-17T12:40:06.064Z,7.73
2018-05-17T12:42:34.348Z,7.50
2018-05-17T12:45:06.048Z,7.53
2018-05-17T12:47:35.202Z,7.40
2018-05-17T12:50:07.221Z,7.43
2018-05-17T12:52:35.515Z,6.67
2018-05-17T12:55:06.744Z,7.20
2018-05-17T12:57:35.195Z,6.53
2018-05-17T13:00:07.102Z,6.93
2018-05-17T13:02:35.428Z,7.07
2018-05-17T13:05:08.440Z,7.77
2018-05-17T13:07:36.742Z,7.37
2018-05-17T13:10:06.255Z,6.80
2018-05-17T13:12:34.548Z,7.43
2018-05-17T13:15:06.728Z,8.00
2018-05-17T13:17:35.250Z,12.40
2018-05-17T13:20:07.000Z,6.80
2018-05-17T13:22:35.292Z,6.70
2018-05-17T13:25:06.476Z,7.67
2018-05-17T13:27:34.770Z,6.37
2018-05-17T13:30:06.751Z,7.10
2018-05-17T13:32:35.049Z,6.97
2018-05-17T13:35:07.041Z,9.43
2018-05-17T13:37:35.367Z,8.47
2018-05-17T13:40:07.523Z,6.83
2018-05-17T13:42:36.059Z,7.63
2018-05-17T13:45:06.052Z,6.27
2018-05-17T13:47:34.363Z,6.20
2018-05-17T13:50:05.698Z,6.83
2018-05-17T13:52:33.983Z,6.47
2018-05-17T13:55:05.839Z,6.90
2018-05-17T13:57:34.128Z,6.00
2018-05-17T14:00:05.944Z,6.60
2018-05-17T14:02:34.329Z,7.23
2018-05-17T14:05:06.213Z,12.23
2018-05-17T14:07:34.523Z,8.00
2018-05-17T14:10:05.932Z,7.40
2018-05-17T14:12:34.214Z,7.10
2018-05-17T14:15:05.899Z,7.00
2018-05-17T14:17:34.483Z,7.23
2018-05-17T14:20:06.688Z,6.57
2018-05-17T14:22:35.207Z,7.13
2018-05-17T14:25:07.200Z,6.10
2018-05-17T14:27:35.940Z,6.47
2018-05-17T14:30:06.168Z,6.73
2018-05-17T14:32:34.463Z,6.83
2018-05-17T14:35:05.991Z,14.60
2018-05-17T14:37:34.275Z,6.70
2018-05-17T14:40:05.771Z,9.73
2018-05-17T14:42:34.115Z,11.20
2018-05-17T14:45:05.771Z,9.80
2018-05-17T14:47:34.076Z,9.97
2018-05-17T14:50:08.963Z,7.83
2018-05-17T14:52:38.015Z,9.13
2018-05-17T14:55:06.305Z,7.10
2018-05-17T14:57:34.573Z,7.93
2018-05-17T15:00:06.153Z,6.20
2018-05-17T15:02:34.538Z,16.20
2018-05-17T15:05:06.650Z,48.83
2018-05-17T15:07:34.923Z,11.83
2018-05-17T15:10:07.054Z,7.73
2018-05-17T15:12:35.327Z,5.73
2018-05-17T15:15:07.795Z,6.27
2018-05-17T15:17:36.070Z,7.10
2018-05-17T15:20:08.499Z,6.60
2018-05-17T15:22:36.792Z,6.40
2018-05-17T15:25:06.411Z,8.37
2018-05-17T15:27:34.755Z,6.10
2018-05-17T15:30:06.812Z,5.63
2018-05-17T15:32:35.098Z,7.57
2018-05-17T15:35:07.136Z,6.13
2018-05-17T15:37:35.410Z,5.90
2018-05-17T15:40:08.238Z,13.80
2018-05-17T15:42:37.078Z,8.37
2018-05-17T15:45:06.905Z,7.27
2018-05-17T15:47:35.452Z,5.60
2018-05-17T15:50:06.006Z,6.40
2018-05-17T15:52:34.279Z,5.90
2018-05-17T15:55:05.800Z,6.03
2018-05-17T15:57:34.074Z,5.00
2018-05-17T16:00:05.541Z,5.20
2018-05-17T16:02:34.819Z,5.00
2018-05-17T16:05:06.586Z,5.20
2018-05-17T16:07:34.864Z,5.30
2018-05-17T16:10:06.188Z,5.03
2018-05-17T16:12:34.475Z,5.67
2018-05-17T16:15:09.594Z,5.17
2018-05-17T16:17:37.903Z,4.93
2018-05-17T16:20:06.176Z,5.67
2018-05-17T16:22:34.659Z,4.60
2018-05-17T16:25:06.803Z,4.43
2018-05-17T16:27:35.090Z,5.10
2018-05-17T16:30:06.307Z,5.20
2018-05-17T16:32:34.823Z,9.33
2018-05-17T16:35:06.296Z,6.50
2018-05-17T16:37:34.567Z,5.10
2018-05-17T16:40:08.719Z,5.07
2018-05-17T16:42:37.074Z,4.97
2018-05-17T16:45:06.734Z,5.20
2018-05-17T16:47:35.149Z,5.17
2018-05-17T16:50:07.111Z,5.53
2018-05-17T16:52:35.641Z,5.13
2018-05-17T16:55:07.599Z,5.00
2018-05-17T16:57:36.030Z,5.20
2018-05-17T17:00:06.141Z,4.67
2018-05-17T17:02:34.439Z,4.80
2018-05-17T17:05:06.301Z,5.17
2018-05-17T17:07:34.600Z,5.40
2018-05-17T17:10:06.308Z,5.93
2018-05-17T17:12:34.602Z,5.47
2018-05-17T17:15:06.769Z,5.23
2018-05-17T17:17:35.041Z,5.53
2018-05-17T17:20:07.087Z,5.37
2018-05-17T17:22:36.538Z,5.00
2018-05-17T17:25:06.732Z,5.10
2018-05-17T17:27:35.054Z,7.07
2018-05-17T17:30:07.007Z,41.27
2018-05-17T17:32:35.316Z,5.57
2018-05-17T17:35:07.403Z,5.50
2018-05-17T17:37:35.692Z,5.07
2018-05-17T17:40:07.243Z,5.57
2018-05-17T17:42:35.527Z,5.73
2018-05-17T17:45:07.787Z,5.17
2018-05-17T17:47:36.092Z,5.70
2018-05-17T17:50:09.336Z,5.07
2018-05-17T17:52:37.651Z,5.53
2018-05-17T17:55:06.435Z,5.50
2018-05-17T17:57:34.745Z,4.97
2018-05-17T18:00:06.111Z,5.30
2018-05-17T18:02:34.414Z,5.40
2018-05-17T18:05:05.897Z,5.47
2018-05-17T18:07:34.235Z,5.70
2018-05-17T18:10:05.520Z,8.03
2018-05-17T18:12:33.817Z,5.13
2018-05-17T18:15:07.202Z,5.60
2018-05-17T18:17:35.528Z,5.80
2018-05-17T18:20:07.296Z,6.10
2018-05-17T18:22:35.744Z,5.60
2018-05-17T18:25:06.537Z,5.40
2018-05-17T18:27:34.808Z,4.83
2018-05-17T18:30:06.134Z,5.00
2018-05-17T18:32:34.435Z,5.27
2018-05-17T18:35:05.977Z,5.33
2018-05-17T18:37:34.264Z,5.43
2018-05-17T18:40:05.492Z,5.57
2018-05-17T18:42:33.775Z,5.77
2018-05-17T18:45:08.497Z,5.80
2018-05-17T18:47:36.792Z,5.97
2018-05-17T18:50:06.203Z,5.33
2018-05-17T18:52:34.479Z,4.97
2018-05-17T18:55:05.931Z,5.13
2018-05-17T18:57:34.224Z,5.67
2018-05-17T19:00:09.263Z,5.57
2018-05-17T19:02:37.508Z,5.57
2018-05-17T19:05:06.807Z,5.60
2018-05-17T19:07:35.124Z,5.57
2018-05-17T19:10:07.166Z,6.13
2018-05-17T19:12:35.479Z,6.40
2018-05-17T19:15:06.165Z,5.90
2018-05-17T19:17:35.287Z,5.87
2018-05-17T19:20:06.525Z,6.37
2018-05-17T19:22:34.879Z,5.37
2018-05-17T19:25:08.784Z,5.13
2018-05-17T19:27:37.120Z,11.37
2018-05-17T19:30:06.338Z,6.80
2018-05-17T19:32:34.727Z,5.37
2018-05-17T19:35:06.471Z,5.47
2018-05-17T19:37:34.797Z,5.27
2018-05-17T19:40:08.754Z,7.27
2018-05-17T19:42:37.143Z,16.13
2018-05-17T19:45:06.592Z,41.13
2018-05-17T19:47:34.872Z,7.10
2018-05-17T19:50:08.855Z,5.53
2018-05-17T19:52:37.157Z,5.53
2018-05-17T19:55:06.731Z,17.80
2018-05-17T19:57:35.153Z,7.97
2018-05-17T20:00:07.015Z,5.67
2018-05-17T20:02:35.328Z,6.03
2018-05-17T20:05:07.373Z,6.13
2018-05-17T20:07:35.681Z,5.93
2018-05-17T20:10:07.745Z,6.20
2018-05-17T20:12:36.039Z,5.63
2018-05-17T20:15:07.867Z,5.23
2018-05-17T20:17:36.179Z,5.23
2018-05-17T20:20:06.252Z,6.70
2018-05-17T20:22:34.632Z,5.67
2018-05-17T20:25:06.452Z,5.73
2018-05-17T20:27:34.751Z,6.90
2018-05-17T20:30:06.908Z,6.37
2018-05-17T20:32:35.217Z,7.63
2018-05-17T20:35:07.133Z,7.13
2018-05-17T20:37:35.461Z,6.27
2018-05-17T20:40:06.269Z,6.13
2018-05-17T20:42:34.579Z,7.93
2018-05-17T20:45:09.756Z,8.77
2018-05-17T20:47:38.429Z,5.80
2018-05-17T20:50:06.696Z,6.40
2018-05-17T20:52:34.999Z,6.37
2018-05-17T20:55:06.987Z,6.10
2018-05-17T20:57:35.215Z,6.53
2018-05-17T21:00:06.251Z,6.47
2018-05-17T21:02:34.544Z,6.97
2018-05-17T21:05:09.664Z,6.37
2018-05-17T21:07:37.967Z,7.40
2018-05-17T21:10:06.665Z,7.30
2018-05-17T21:12:34.956Z,6.80
2018-05-17T21:15:09.040Z,7.53
2018-05-17T21:17:37.307Z,7.43
2018-05-17T21:20:06.737Z,6.90
2018-05-17T21:22:35.256Z,9.20
2018-05-17T21:25:07.096Z,7.13
2018-05-17T21:27:35.372Z,7.10
2018-05-17T21:30:07.500Z,6.90
2018-05-17T21:32:35.770Z,8.83
2018-05-17T21:35:07.020Z,8.00
2018-05-17T21:37:35.315Z,7.17
2018-05-17T21:40:06.540Z,7.43
2018-05-17T21:42:34.807Z,8.50
2018-05-17T21:45:06.176Z,9.10
2018-05-17T21:47:35.118Z,7.47
2018-05-17T21:50:06.951Z,7.13
2018-05-17T21:52:35.635Z,10.10
2018-05-17T21:55:07.160Z,8.03
2018-05-17T21:57:35.446Z,6.87
2018-05-17T22:00:07.463Z,7.20
2018-05-17T22:02:35.844Z,14.00
2018-05-17T22:05:06.439Z,9.63
2018-05-17T22:07:35.692Z,8.13
2018-05-17T22:10:07.115Z,8.13
2018-05-17T22:12:35.424Z,11.23
2018-05-17T22:15:07.460Z,7.03
2018-05-17T22:17:35.780Z,10.23
2018-05-17T22:20:07.823Z,21.23
2018-05-17T22:22:36.507Z,6.70
2018-05-17T22:25:08.112Z,7.47
2018-05-17T22:27:36.802Z,9.23
2018-05-17T22:30:06.510Z,10.23
2018-05-17T22:32:34.795Z,8.40
2018-05-17T22:35:06.380Z,7.53
2018-05-17T22:37:34.651Z,7.27
2018-05-17T22:40:06.377Z,7.50
2018-05-17T22:42:34.690Z,10.77
2018-05-17T22:45:06.212Z,7.57
2018-05-17T22:47:34.492Z,10.10
2018-05-17T22:50:06.020Z,11.80
2018-05-17T22:52:34.298Z,6.97
2018-05-17T22:55:06.213Z,7.07
2018-05-17T22:57:46.317Z,9.57
2018-05-17T23:00:16.550Z,16.23
2018-05-17T23:02:44.827Z,8.13
2018-05-17T23:05:13.403Z,9.40
2018-05-17T23:07:41.671Z,8.10
2018-05-17T23:10:10.191Z,6.87
2018-05-17T23:12:38.630Z,10.97
2018-05-17T23:15:06.907Z,7.70
2018-05-17T23:17:35.206Z,13.67
2018-05-17T23:20:07.400Z,8.93
2018-05-17T23:22:36.502Z,7.47
2018-05-17T23:25:09.191Z,9.43
2018-05-17T23:27:37.478Z,7.97
2018-05-17T23:30:07.659Z,9.37
2018-05-17T23:32:35.958Z,14.60
2018-05-17T23:35:07.351Z,8.60
2018-05-17T23:37:35.652Z,8.43
2018-05-17T23:43:06.574Z,7.70
2018-05-17T23:45:34.974Z,7.83
2018-05-17T23:48:03.277Z,6.63
2018-05-17T23:50:31.563Z,7.37
2018-05-17T23:52:59.963Z,7.37
2018-05-17T23:55:28.226Z,8.73
2018-05-17T23:57:56.528Z,7.17
